createdAt,value
2022-07-25T00:00:56.624Z,27.70
2022-07-25T00:03:27.040Z,27.70
2022-07-25T00:06:00.123Z,27.60
2022-07-25T00:08:33.241Z,27.60
2022-07-25T00:11:06.186Z,27.60
2022-07-25T00:13:36.853Z,27.60
2022-07-25T00:16:07.950Z,27.60
2022-07-25T00:18:38.466Z,27.50
2022-07-25T00:21:09.284Z,27.50
2022-07-25T00:23:39.870Z,27.50
2022-07-25T00:26:12.770Z,27.40
2022-07-25T00:28:43.262Z,27.40
2022-07-25T00:31:13.546Z,27.40
2022-07-25T00:33:44.231Z,27.30
2022-07-25T00:36:14.539Z,27.20
2022-07-25T00:38:44.970Z,27.20
2022-07-25T00:41:17.892Z,27.20
2022-07-25T00:43:48.623Z,27.10
2022-07-25T00:46:20.635Z,27.10
2022-07-25T00:48:52.068Z,27.00
2022-07-25T00:51:23.566Z,27.00
2022-07-25T00:53:53.999Z,27.00
2022-07-25T00:56:27.548Z,26.90
2022-07-25T00:58:58.328Z,26.90
2022-07-25T01:01:28.635Z,26.90
2022-07-25T01:03:59.157Z,26.90
2022-07-25T01:06:30.154Z,26.90
2022-07-25T01:09:01.033Z,26.80
2022-07-25T01:11:33.954Z,26.80
2022-07-25T01:14:04.589Z,26.80
2022-07-25T01:16:35.358Z,26.70
2022-07-25T01:19:05.897Z,26.70
2022-07-25T01:21:43.661Z,26.70
2022-07-25T01:24:15.199Z,26.70
2022-07-25T01:26:45.483Z,26.60
2022-07-25T01:29:15.954Z,26.60
2022-07-25T01:31:46.377Z,26.50
2022-07-25T01:34:17.079Z,26.50
2022-07-25T01:36:50.533Z,26.50
2022-07-25T01:39:20.838Z,26.40
2022-07-25T01:41:51.201Z,26.40
2022-07-25T01:44:21.539Z,26.40
2022-07-25T01:46:52.710Z,26.40
2022-07-25T01:49:23.010Z,26.40
2022-07-25T01:51:55.933Z,26.40
2022-07-25T01:54:26.228Z,26.30
2022-07-25T01:56:56.551Z,26.20
2022-07-25T01:59:27.461Z,26.20
2022-07-25T02:01:57.776Z,26.20
2022-07-25T02:04:28.219Z,26.20
2022-07-25T02:07:01.293Z,26.20
2022-07-25T02:09:32.548Z,26.20
2022-07-25T02:12:02.799Z,26.10
2022-07-25T02:14:33.360Z,26.10
2022-07-25T02:17:03.957Z,26.10
2022-07-25T02:19:34.586Z,26.00
2022-07-25T02:22:07.752Z,26.00
2022-07-25T02:24:38.107Z,26.00
2022-07-25T02:27:08.601Z,26.00
2022-07-25T02:29:39.635Z,25.90
2022-07-25T02:32:10.157Z,25.90
2022-07-25T02:34:40.964Z,25.90
2022-07-25T02:37:13.827Z,25.90
2022-07-25T02:39:44.082Z,25.90
2022-07-25T02:42:14.451Z,25.90
2022-07-25T02:44:44.767Z,25.80
2022-07-25T02:47:15.039Z,25.60
2022-07-25T02:49:45.391Z,25.70
2022-07-25T02:52:18.311Z,25.80
2022-07-25T02:54:48.631Z,25.70
2022-07-25T02:57:19.683Z,25.70
2022-07-25T02:59:50.293Z,25.70
2022-07-25T03:02:20.551Z,25.70
2022-07-25T03:04:51.045Z,25.60
2022-07-25T03:07:23.981Z,25.60
2022-07-25T03:09:54.365Z,25.60
2022-07-25T03:12:24.679Z,25.60
2022-07-25T03:14:54.997Z,25.60
2022-07-25T03:17:25.226Z,25.60
2022-07-25T03:19:55.703Z,25.60
2022-07-25T03:22:28.659Z,25.50
2022-07-25T03:24:59.094Z,25.50
2022-07-25T03:27:29.403Z,25.50
2022-07-25T03:30:00.191Z,25.50
2022-07-25T03:32:30.460Z,25.50
2022-07-25T03:35:01.038Z,25.50
2022-07-25T03:37:36.302Z,25.50
2022-07-25T03:40:09.976Z,25.50
2022-07-25T03:42:40.362Z,25.40
2022-07-25T03:45:12.269Z,25.50
2022-07-25T03:47:42.593Z,25.30
2022-07-25T03:50:13.444Z,25.20
2022-07-25T03:52:46.355Z,25.30
2022-07-25T03:55:16.666Z,25.30
2022-07-25T03:57:46.903Z,25.20
2022-07-25T04:00:17.958Z,25.20
2022-07-25T04:02:48.299Z,25.20
2022-07-25T04:05:18.842Z,25.20
2022-07-25T04:07:51.691Z,25.20
2022-07-25T04:10:22.070Z,25.20
2022-07-25T04:12:52.358Z,25.10
2022-07-25T04:15:22.713Z,25.10
2022-07-25T04:17:52.924Z,25.10
2022-07-25T04:20:23.986Z,25.10
2022-07-25T04:22:57.985Z,25.10
2022-07-25T04:25:28.433Z,25.00
2022-07-25T04:27:58.710Z,25.00
2022-07-25T04:30:29.327Z,25.10
2022-07-25T04:33:00.262Z,25.10
2022-07-25T04:35:30.736Z,25.10
2022-07-25T04:38:04.886Z,25.10
2022-07-25T04:40:37.357Z,24.90
2022-07-25T04:43:08.611Z,25.10
2022-07-25T04:45:39.222Z,24.90
2022-07-25T04:48:10.318Z,25.00
2022-07-25T04:50:40.724Z,25.10
2022-07-25T04:53:13.633Z,25.00
2022-07-25T04:55:43.957Z,25.10
2022-07-25T04:58:14.372Z,25.00
2022-07-25T05:00:44.910Z,25.00
2022-07-25T05:03:15.301Z,25.00
2022-07-25T05:05:45.789Z,25.00
2022-07-25T05:08:20.893Z,25.00
2022-07-25T05:10:51.190Z,24.90
2022-07-25T05:13:24.920Z,24.70
2022-07-25T05:15:55.294Z,24.90
2022-07-25T05:18:25.928Z,24.70
2022-07-25T05:20:56.338Z,24.60
2022-07-25T05:23:29.296Z,24.70
2022-07-25T05:25:59.647Z,24.70
2022-07-25T05:28:29.935Z,24.60
2022-07-25T05:31:00.350Z,24.70
2022-07-25T05:33:30.791Z,24.50
2022-07-25T05:36:01.432Z,24.50
2022-07-25T05:38:34.376Z,24.40
2022-07-25T05:41:04.652Z,24.40
2022-07-25T05:43:34.950Z,24.60
2022-07-25T05:46:06.150Z,24.50
2022-07-25T05:48:36.536Z,24.60
2022-07-25T05:51:07.224Z,24.60
2022-07-25T05:53:40.159Z,24.40
2022-07-25T05:56:11.893Z,24.30
2022-07-25T05:58:42.591Z,24.40
2022-07-25T06:01:16.148Z,24.50
2022-07-25T06:03:46.432Z,24.50
2022-07-25T06:06:16.898Z,24.40
2022-07-25T06:08:49.818Z,24.50
2022-07-25T06:11:20.173Z,24.30
2022-07-25T06:13:51.671Z,24.30
2022-07-25T06:16:22.049Z,24.20
2022-07-25T06:18:52.440Z,24.20
2022-07-25T06:21:22.753Z,24.30
2022-07-25T06:23:55.797Z,24.30
2022-07-25T06:26:26.287Z,24.30
2022-07-25T06:28:57.340Z,24.20
2022-07-25T06:31:27.802Z,24.30
2022-07-25T06:33:58.134Z,24.30
2022-07-25T06:36:32.786Z,24.40
2022-07-25T06:39:08.341Z,24.40
2022-07-25T06:41:39.514Z,24.40
2022-07-25T06:44:10.130Z,24.40
2022-07-25T06:46:40.685Z,24.40
2022-07-25T06:49:11.149Z,24.30
2022-07-25T06:51:41.649Z,24.20
2022-07-25T06:54:15.766Z,24.30
2022-07-25T06:56:46.112Z,24.30
2022-07-25T06:59:16.447Z,24.40
2022-07-25T07:01:51.363Z,24.30
2022-07-25T07:04:22.159Z,24.40
2022-07-25T07:06:52.631Z,24.50
2022-07-25T07:09:25.820Z,24.50
2022-07-25T07:11:56.134Z,24.40
2022-07-25T07:14:26.543Z,24.20
2022-07-25T07:16:56.915Z,24.40
2022-07-25T07:19:27.674Z,24.50
2022-07-25T07:21:58.405Z,24.60
2022-07-25T07:24:31.796Z,24.60
2022-07-25T07:27:02.156Z,24.60
2022-07-25T07:29:32.443Z,24.60
2022-07-25T07:32:02.980Z,24.70
2022-07-25T07:34:33.288Z,24.70
2022-07-25T07:37:03.886Z,24.70
2022-07-25T07:39:37.058Z,24.70
2022-07-25T07:42:07.906Z,24.70
2022-07-25T07:44:38.195Z,24.70
2022-07-25T07:47:14.411Z,24.90
2022-07-25T07:49:50.012Z,24.80
2022-07-25T07:52:20.816Z,24.60
2022-07-25T07:55:06.094Z,24.50
2022-07-25T07:57:36.458Z,24.50
2022-07-25T08:00:09.867Z,24.60
2022-07-25T08:02:49.584Z,24.80
2022-07-25T08:05:24.654Z,24.80
2022-07-25T08:07:56.191Z,24.80
2022-07-25T08:10:30.515Z,24.70
2022-07-25T08:13:01.788Z,24.60
2022-07-25T08:15:32.304Z,24.60
2022-07-25T08:18:02.691Z,24.80
2022-07-25T08:20:38.270Z,24.90
2022-07-25T08:23:11.344Z,24.90
2022-07-25T08:25:45.148Z,24.90
2022-07-25T08:28:16.004Z,24.80
2022-07-25T08:30:47.023Z,24.90
2022-07-25T08:33:18.787Z,25.00
2022-07-25T08:35:51.986Z,25.00
2022-07-25T08:38:22.638Z,25.00
2022-07-25T08:40:56.327Z,25.00
2022-07-25T08:43:29.451Z,25.00
2022-07-25T08:46:00.453Z,25.20
2022-07-25T08:48:30.991Z,25.20
2022-07-25T08:51:02.385Z,25.20
2022-07-25T08:53:34.356Z,25.20
2022-07-25T08:56:13.722Z,25.20
2022-07-25T08:58:48.077Z,25.20
2022-07-25T09:01:18.622Z,25.30
2022-07-25T09:03:49.159Z,25.30
2022-07-25T09:06:21.923Z,25.40
2022-07-25T09:08:59.833Z,25.40
2022-07-25T09:11:39.719Z,25.30
2022-07-25T09:14:15.185Z,25.30
2022-07-25T09:16:48.181Z,25.30
2022-07-25T09:19:20.139Z,25.30
2022-07-25T09:22:03.446Z,25.30
2022-07-25T09:24:35.316Z,25.50
2022-07-25T09:27:13.106Z,25.50
2022-07-25T09:29:44.917Z,25.50
2022-07-25T09:32:20.786Z,25.70
2022-07-25T09:34:53.509Z,25.80
2022-07-25T09:37:29.808Z,25.90
2022-07-25T09:40:03.227Z,25.90
2022-07-25T09:42:36.700Z,26.00
2022-07-25T09:45:11.543Z,25.90
2022-07-25T09:47:54.796Z,25.70
2022-07-25T09:50:27.049Z,25.90
2022-07-25T09:52:58.927Z,26.20
2022-07-25T09:55:29.649Z,26.20
2022-07-25T09:58:02.571Z,26.20
2022-07-25T10:00:35.582Z,26.20
2022-07-25T10:03:23.210Z,26.10
2022-07-25T10:06:07.971Z,26.00
2022-07-25T10:08:40.276Z,26.10
2022-07-25T10:11:22.160Z,26.20
2022-07-25T10:13:56.651Z,26.30
2022-07-25T10:16:29.112Z,26.40
2022-07-25T10:19:01.051Z,26.60
2022-07-25T10:21:31.907Z,26.90
2022-07-25T10:24:04.896Z,27.10
2022-07-25T10:26:38.819Z,27.00
2022-07-25T10:29:14.933Z,26.80
2022-07-25T10:31:51.197Z,26.90
2022-07-25T10:34:33.725Z,26.50
2022-07-25T10:37:13.966Z,26.60
2022-07-25T10:39:46.918Z,26.60
2022-07-25T10:42:18.718Z,26.50
2022-07-25T10:44:53.822Z,26.50
2022-07-25T10:47:27.347Z,26.40
2022-07-25T10:53:07.985Z,26.50
2022-07-25T10:55:39.817Z,26.50
2022-07-25T10:58:18.353Z,26.50
2022-07-25T11:00:51.725Z,26.70
2022-07-25T11:03:23.226Z,26.60
2022-07-25T11:05:54.871Z,26.50
2022-07-25T11:08:34.597Z,26.40
2022-07-25T11:11:05.493Z,26.40
2022-07-25T11:13:40.448Z,26.30
2022-07-25T11:16:13.861Z,26.30
2022-07-25T11:18:45.209Z,26.20
2022-07-25T11:21:15.580Z,26.20
2022-07-25T11:23:46.022Z,26.30
2022-07-25T11:26:16.584Z,26.20
2022-07-25T11:28:48.911Z,26.00
2022-07-25T11:31:25.440Z,26.10
2022-07-25T11:33:55.911Z,26.10
2022-07-25T11:36:26.362Z,26.00
2022-07-25T11:38:56.752Z,26.00
2022-07-25T11:41:33.859Z,26.00
2022-07-25T11:44:04.219Z,25.80
2022-07-25T11:46:44.988Z,25.70
2022-07-25T11:49:15.538Z,25.70
2022-07-25T11:51:46.934Z,25.50
2022-07-25T11:54:17.372Z,25.40
2022-07-25T11:56:47.910Z,25.50
2022-07-25T11:59:18.356Z,25.30
2022-07-25T12:01:51.479Z,25.40
2022-07-25T12:04:22.917Z,25.20
2022-07-25T12:06:53.694Z,25.20
2022-07-25T12:09:26.477Z,25.30
2022-07-25T12:12:05.863Z,25.30
2022-07-25T12:14:46.018Z,25.20
2022-07-25T12:17:19.049Z,25.00
2022-07-25T12:19:50.082Z,25.10
2022-07-25T12:22:20.501Z,25.30
2022-07-25T12:24:50.979Z,25.30
2022-07-25T12:27:21.309Z,25.50
2022-07-25T12:29:51.613Z,25.60
2022-07-25T12:32:24.524Z,25.70
2022-07-25T12:34:54.864Z,25.70
2022-07-25T12:37:25.212Z,25.80
2022-07-25T12:39:56.019Z,25.80
2022-07-25T12:42:26.463Z,26.00
2022-07-25T12:44:56.916Z,26.20
2022-07-25T12:47:32.859Z,26.30
2022-07-25T12:50:03.456Z,26.10
2022-07-25T12:52:34.014Z,25.90
2022-07-25T12:55:04.706Z,25.80
2022-07-25T12:57:35.187Z,25.80
2022-07-25T13:00:07.547Z,25.70
2022-07-25T13:02:43.746Z,25.70
2022-07-25T13:05:14.661Z,25.70
2022-07-25T13:07:45.980Z,25.70
2022-07-25T13:10:16.338Z,25.70
2022-07-25T13:12:46.818Z,25.90
2022-07-25T13:15:18.364Z,26.20
2022-07-25T13:17:51.405Z,26.60
2022-07-25T13:20:21.922Z,26.80
2022-07-25T13:22:52.439Z,26.80
2022-07-25T13:25:23.076Z,26.80
2022-07-25T13:27:53.407Z,26.40
2022-07-25T13:30:23.838Z,26.20
2022-07-25T13:32:58.147Z,26.00
2022-07-25T13:35:35.102Z,26.00
2022-07-25T13:38:11.045Z,26.00
2022-07-25T13:40:42.276Z,26.10
2022-07-25T13:43:12.823Z,26.10
2022-07-25T13:45:46.823Z,26.20
2022-07-25T13:48:29.412Z,26.20
2022-07-25T13:51:01.633Z,26.20
2022-07-25T13:53:32.105Z,26.20
2022-07-25T13:56:02.992Z,26.30
2022-07-25T13:58:34.356Z,26.20
2022-07-25T14:01:04.918Z,26.40
2022-07-25T14:03:38.899Z,26.50
2022-07-25T14:06:12.341Z,26.40
2022-07-25T14:08:44.427Z,26.30
2022-07-25T14:11:14.835Z,26.20
2022-07-25T14:13:47.161Z,26.60
2022-07-25T14:16:21.270Z,26.90
2022-07-25T14:18:55.073Z,26.70
2022-07-25T14:21:25.663Z,26.90
2022-07-25T14:23:56.565Z,27.00
2022-07-25T14:26:28.439Z,27.30
2022-07-25T14:28:58.941Z,27.20
2022-07-25T14:31:29.670Z,26.90
2022-07-25T14:34:02.918Z,26.70
2022-07-25T14:36:35.827Z,26.70
2022-07-25T14:39:07.813Z,26.50
2022-07-25T14:41:41.673Z,26.60
2022-07-25T14:44:14.380Z,26.60
2022-07-25T14:46:45.555Z,26.80
2022-07-25T14:49:19.521Z,26.90
2022-07-25T14:51:50.894Z,27.00
2022-07-25T14:54:21.472Z,26.90
2022-07-25T14:56:51.974Z,26.80
2022-07-25T14:59:22.508Z,26.80
2022-07-25T15:01:52.902Z,26.90
2022-07-25T15:04:26.065Z,27.10
2022-07-25T15:06:56.570Z,27.10
2022-07-25T15:09:29.797Z,27.10
2022-07-25T15:12:00.202Z,26.90
2022-07-25T15:14:30.601Z,27.00
2022-07-25T15:17:00.954Z,27.00
2022-07-25T15:19:33.980Z,27.00
2022-07-25T15:22:04.393Z,27.00
2022-07-25T15:24:50.192Z,27.00
2022-07-25T15:27:25.101Z,27.20
2022-07-25T15:29:55.428Z,27.20
2022-07-25T15:32:25.777Z,27.30
2022-07-25T15:35:00.754Z,27.30
2022-07-25T15:37:35.045Z,27.60
2022-07-25T15:40:05.694Z,27.60
2022-07-25T15:42:36.059Z,27.50
2022-07-25T15:45:32.091Z,27.90
2022-07-25T15:47:57.016Z,27.70
2022-07-25T15:50:30.023Z,27.80
2022-07-25T15:53:00.373Z,27.60
2022-07-25T15:55:30.884Z,27.40
2022-07-25T15:58:01.686Z,27.30
2022-07-25T16:00:32.166Z,27.50
2022-07-25T16:03:05.987Z,27.50
2022-07-25T16:05:39.966Z,27.50
2022-07-25T16:08:11.407Z,27.60
2022-07-25T16:10:41.843Z,27.10
2022-07-25T16:13:12.178Z,27.50
2022-07-25T16:15:42.586Z,27.60
2022-07-25T16:18:12.978Z,27.30
2022-07-25T16:20:45.918Z,27.10
2022-07-25T16:23:16.893Z,27.10
2022-07-25T16:25:47.306Z,27.00
2022-07-25T16:28:17.677Z,26.90
2022-07-25T16:30:49.372Z,26.80
2022-07-25T16:33:20.048Z,27.30
2022-07-25T16:35:53.041Z,27.40
2022-07-25T16:38:23.519Z,27.60
2022-07-25T16:40:53.874Z,27.60
2022-07-25T16:43:24.299Z,27.10
2022-07-25T16:45:54.740Z,27.40
2022-07-25T16:48:25.293Z,27.70
2022-07-25T16:50:58.226Z,27.60
2022-07-25T16:53:28.657Z,27.20
2022-07-25T16:56:02.542Z,26.90
2022-07-25T16:58:33.017Z,26.80
2022-07-25T17:01:03.341Z,26.60
2022-07-25T17:03:33.831Z,26.60
2022-07-25T17:06:07.007Z,26.60
2022-07-25T17:08:38.056Z,26.60
2022-07-25T17:11:08.812Z,26.50
2022-07-25T17:13:39.179Z,26.40
2022-07-25T17:16:10.454Z,26.40
2022-07-25T17:18:41.385Z,26.40
2022-07-25T17:21:17.949Z,26.40
2022-07-25T17:23:50.673Z,26.40
2022-07-25T17:26:21.034Z,26.40
2022-07-25T17:28:51.555Z,26.30
2022-07-25T17:31:22.374Z,26.40
2022-07-25T17:33:52.717Z,26.30
2022-07-25T17:36:25.672Z,26.10
2022-07-25T17:38:55.988Z,26.00
2022-07-25T17:41:26.265Z,26.00
2022-07-25T17:43:56.588Z,26.00
2022-07-25T17:46:27.043Z,26.00
2022-07-25T17:48:59.354Z,26.00
2022-07-25T17:51:32.304Z,25.90
2022-07-25T17:54:02.713Z,25.80
2022-07-25T17:56:33.314Z,25.70
2022-07-25T17:59:03.825Z,25.90
2022-07-25T18:01:34.279Z,25.90
2022-07-25T18:04:04.956Z,25.90
2022-07-25T18:06:38.187Z,25.90
2022-07-25T18:09:08.540Z,25.80
2022-07-25T18:11:38.867Z,25.70
2022-07-25T18:14:09.996Z,25.70
2022-07-25T18:16:41.582Z,25.60
2022-07-25T18:19:11.931Z,25.50
2022-07-25T18:21:45.185Z,25.50
2022-07-25T18:24:16.208Z,25.50
2022-07-25T18:26:46.535Z,25.50
2022-07-25T18:29:16.864Z,25.30
2022-07-25T18:31:47.265Z,25.30
2022-07-25T18:34:17.809Z,25.40
2022-07-25T18:36:50.707Z,25.30
2022-07-25T18:39:20.991Z,25.20
2022-07-25T18:41:51.473Z,25.10
2022-07-25T18:44:22.178Z,25.00
2022-07-25T18:46:52.529Z,25.10
2022-07-25T18:49:23.202Z,24.90
2022-07-25T18:51:56.406Z,24.80
2022-07-25T18:54:27.142Z,24.90
2022-07-25T18:56:57.470Z,24.70
2022-07-25T18:59:28.328Z,24.60
2022-07-25T19:01:58.627Z,24.70
2022-07-25T19:04:29.180Z,25.30
2022-07-25T19:07:04.158Z,25.40
2022-07-25T19:09:34.539Z,25.60
2022-07-25T19:12:05.072Z,25.20
2022-07-25T19:14:35.418Z,25.00
2022-07-25T19:17:08.660Z,24.80
2022-07-25T19:19:39.311Z,24.80
2022-07-25T19:22:12.335Z,24.80
2022-07-25T19:24:42.728Z,24.90
2022-07-25T19:27:13.543Z,24.80
2022-07-25T19:29:45.491Z,24.60
2022-07-25T19:32:18.004Z,24.60
2022-07-25T19:34:48.734Z,24.50
2022-07-25T19:37:21.685Z,24.60
2022-07-25T19:39:53.396Z,24.40
2022-07-25T19:42:24.220Z,24.50
2022-07-25T19:44:54.836Z,24.50
2022-07-25T19:47:25.387Z,24.50
2022-07-25T19:49:56.133Z,24.40
2022-07-25T19:52:29.065Z,24.50
2022-07-25T19:55:00.431Z,24.40
2022-07-25T19:57:31.064Z,24.30
2022-07-25T20:00:01.503Z,24.30
2022-07-25T20:02:43.830Z,24.30
2022-07-25T20:05:16.585Z,24.20
2022-07-25T20:07:49.662Z,24.20
2022-07-25T20:10:20.163Z,24.20
2022-07-25T20:12:50.518Z,24.10
2022-07-25T20:15:20.990Z,24.10
2022-07-25T20:17:51.649Z,24.10
2022-07-25T20:20:22.354Z,24.10
2022-07-25T20:22:55.958Z,24.00
2022-07-25T20:25:26.445Z,24.00
2022-07-25T20:27:57.118Z,23.90
2022-07-25T20:30:31.624Z,23.90
2022-07-25T20:33:09.572Z,23.80
2022-07-25T20:35:40.454Z,23.80
2022-07-25T20:38:13.346Z,23.90
2022-07-25T20:40:49.485Z,23.90
2022-07-25T20:43:20.315Z,23.90
2022-07-25T20:45:50.661Z,23.90
2022-07-25T20:48:21.367Z,23.90
2022-07-25T20:50:55.053Z,23.80
2022-07-25T20:53:28.279Z,23.90
2022-07-25T20:55:58.617Z,23.80
2022-07-25T20:58:29.172Z,23.80
2022-07-25T21:00:59.962Z,23.80
2022-07-25T21:03:31.153Z,23.70
2022-07-25T21:06:01.696Z,23.70
2022-07-25T21:08:34.598Z,23.60
2022-07-25T21:11:04.981Z,23.50
2022-07-25T21:13:35.403Z,23.50
2022-07-25T21:16:06.153Z,23.50
2022-07-25T21:18:36.605Z,23.50
2022-07-25T21:21:11.975Z,23.60
2022-07-25T21:23:45.263Z,23.50
2022-07-25T21:26:16.966Z,23.50
2022-07-25T21:28:47.751Z,23.40
2022-07-25T21:31:20.257Z,23.30
2022-07-25T21:33:50.634Z,23.20
2022-07-25T21:36:21.031Z,23.20
2022-07-25T21:38:54.062Z,23.30
2022-07-25T21:41:24.558Z,23.20
2022-07-25T21:43:54.874Z,23.20
2022-07-25T21:46:25.416Z,23.20
2022-07-25T21:49:08.418Z,23.20
2022-07-25T21:51:40.314Z,23.10
2022-07-25T21:54:14.871Z,23.10
2022-07-25T21:56:45.355Z,23.10
2022-07-25T21:59:15.846Z,23.10
2022-07-25T22:01:46.397Z,23.10
2022-07-25T22:04:17.843Z,23.00
2022-07-25T22:06:48.234Z,23.10
2022-07-25T22:09:21.279Z,23.00
2022-07-25T22:11:51.737Z,23.00
2022-07-25T22:14:22.102Z,22.90
2022-07-25T22:16:52.711Z,22.90
2022-07-25T22:19:23.187Z,22.90
2022-07-25T22:21:54.035Z,22.80
2022-07-25T22:24:27.084Z,22.60
2022-07-25T22:26:57.461Z,22.70
2022-07-25T22:29:28.021Z,22.70
2022-07-25T22:31:58.474Z,22.70
2022-07-25T22:34:28.979Z,22.50
2022-07-25T22:36:59.419Z,22.70
2022-07-25T22:39:32.411Z,22.50
2022-07-25T22:42:02.745Z,22.60
2022-07-25T22:44:33.034Z,22.50
2022-07-25T22:47:03.374Z,22.50
2022-07-25T22:49:33.791Z,22.50
2022-07-25T22:52:04.171Z,22.40
2022-07-25T22:54:38.304Z,22.40
2022-07-25T22:57:08.692Z,22.40
2022-07-25T22:59:41.891Z,22.40
2022-07-25T23:02:12.485Z,22.30
2022-07-25T23:04:42.828Z,22.30
2022-07-25T23:07:16.173Z,22.30
2022-07-25T23:09:49.191Z,22.30
2022-07-25T23:12:19.503Z,22.30
2022-07-25T23:14:49.721Z,22.20
2022-07-25T23:17:20.407Z,22.20
2022-07-25T23:19:53.027Z,22.30
2022-07-25T23:22:24.996Z,22.20
2022-07-25T23:24:58.690Z,22.10
2022-07-25T23:27:33.318Z,22.00
2022-07-25T23:30:06.611Z,22.10
2022-07-25T23:32:37.432Z,22.00
2022-07-25T23:35:08.708Z,22.00
2022-07-25T23:37:39.288Z,22.00
2022-07-25T23:40:13.844Z,21.90
2022-07-25T23:42:44.215Z,22.00
2022-07-25T23:45:17.350Z,21.90
2022-07-25T23:47:49.551Z,22.00
2022-07-25T23:50:19.901Z,21.80
2022-07-25T23:52:50.277Z,21.80
2022-07-25T23:55:23.349Z,21.80
2022-07-25T23:57:53.711Z,21.70
